sensor_id;sensor_type;location;lat;lon;timestamp;P1;durP1;ratioP1;P2;durP2;ratioP2
51459;SDS011;37534;39.772;2.718;2023-03-03T00:02:25;33.83;;;25.85;;
51459;SDS011;37534;39.772;2.718;2023-03-03T00:04:51;28.27;;;23.50;;
51459;SDS011;37534;39.772;2.718;2023-03-03T00:07:16;23.98;;;20.65;;
51459;SDS011;37534;39.772;2.718;2023-03-03T00:09:47;35.28;;;19.80;;
51459;SDS011;37534;39.772;2.718;2023-03-03T00:14:52;23.00;;;18.65;;
51459;SDS011;37534;39.772;2.718;2023-03-03T00:17:20;21.23;;;17.85;;
51459;SDS011;37534;39.772;2.718;2023-03-03T00:19:53;23.92;;;19.13;;
51459;SDS011;37534;39.772;2.718;2023-03-03T00:22:27;24.00;;;20.42;;
51459;SDS011;37534;39.772;2.718;2023-03-03T00:25:00;31.25;;;20.77;;
51459;SDS011;37534;39.772;2.718;2023-03-03T00:27:51;22.70;;;18.90;;
51459;SDS011;37534;39.772;2.718;2023-03-03T00:30:22;23.52;;;20.67;;
51459;SDS011;37534;39.772;2.718;2023-03-03T00:32:49;23.90;;;20.77;;
51459;SDS011;37534;39.772;2.718;2023-03-03T00:35:24;25.73;;;21.35;;
51459;SDS011;37534;39.772;2.718;2023-03-03T00:38:13;22.92;;;18.85;;
51459;SDS011;37534;39.772;2.718;2023-03-03T00:40:41;22.65;;;20.25;;
51459;SDS011;37534;39.772;2.718;2023-03-03T00:43:21;22.10;;;18.88;;
51459;SDS011;37534;39.772;2.718;2023-03-03T00:45:52;20.43;;;18.23;;
51459;SDS011;37534;39.772;2.718;2023-03-03T00:50:59;29.10;;;17.98;;
51459;SDS011;37534;39.772;2.718;2023-03-03T00:53:30;41.60;;;31.63;;
51459;SDS011;37534;39.772;2.718;2023-03-03T00:55:56;28.75;;;21.63;;
51459;SDS011;37534;39.772;2.718;2023-03-03T00:58:22;26.35;;;19.33;;
51459;SDS011;37534;39.772;2.718;2023-03-03T01:00:50;20.77;;;18.63;;
51459;SDS011;37534;39.772;2.718;2023-03-03T01:03:18;23.42;;;18.67;;
51459;SDS011;37534;39.772;2.718;2023-03-03T01:05:46;19.95;;;17.70;;
51459;SDS011;37534;39.772;2.718;2023-03-03T01:08:12;26.05;;;16.27;;
51459;SDS011;37534;39.772;2.718;2023-03-03T01:10:40;22.63;;;15.30;;
51459;SDS011;37534;39.772;2.718;2023-03-03T01:13:09;18.52;;;14.50;;
51459;SDS011;37534;39.772;2.718;2023-03-03T01:15:37;15.40;;;13.35;;
51459;SDS011;37534;39.772;2.718;2023-03-03T01:18:04;18.38;;;14.02;;
51459;SDS011;37534;39.772;2.718;2023-03-03T01:20:30;15.80;;;13.05;;
51459;SDS011;37534;39.772;2.718;2023-03-03T01:22:56;15.75;;;14.10;;
51459;SDS011;37534;39.772;2.718;2023-03-03T20:22:30;34.60;;;26.60;;
51459;SDS011;37534;39.772;2.718;2023-03-03T20:41:22;54.95;;;41.03;;
51459;SDS011;37534;39.772;2.718;2023-03-03T20:59:36;47.20;;;36.93;;
51459;SDS011;37534;39.772;2.718;2023-03-03T21:04:42;47.90;;;35.05;;
51459;SDS011;37534;39.772;2.718;2023-03-03T21:07:08;42.75;;;36.47;;
51459;SDS011;37534;39.772;2.718;2023-03-03T21:09:48;45.22;;;38.50;;
51459;SDS011;37534;39.772;2.718;2023-03-03T21:12:27;39.85;;;33.78;;
51459;SDS011;37534;39.772;2.718;2023-03-03T21:15:06;39.78;;;32.15;;
51459;SDS011;37534;39.772;2.718;2023-03-03T21:17:45;48.95;;;31.40;;
51459;SDS011;37534;39.772;2.718;2023-03-03T21:20:17;38.55;;;33.22;;
51459;SDS011;37534;39.772;2.718;2023-03-03T21:22:48;44.53;;;36.95;;
51459;SDS011;37534;39.772;2.718;2023-03-03T21:28:13;40.80;;;32.70;;
51459;SDS011;37534;39.772;2.718;2023-03-03T21:31:06;44.85;;;34.55;;
51459;SDS011;37534;39.772;2.718;2023-03-03T21:33:41;52.83;;;40.25;;
51459;SDS011;37534;39.772;2.718;2023-03-03T21:36:10;80.85;;;58.72;;
51459;SDS011;37534;39.772;2.718;2023-03-03T21:38:38;129.63;;;81.13;;
51459;SDS011;37534;39.772;2.718;2023-03-03T21:41:04;101.00;;;66.32;;
51459;SDS011;37534;39.772;2.718;2023-03-03T21:43:33;146.82;;;93.15;;
51459;SDS011;37534;39.772;2.718;2023-03-03T21:46:00;90.95;;;63.63;;
51459;SDS011;37534;39.772;2.718;2023-03-03T21:48:26;82.03;;;53.50;;
51459;SDS011;37534;39.772;2.718;2023-03-03T21:50:51;86.82;;;61.78;;
51459;SDS011;37534;39.772;2.718;2023-03-03T21:53:17;93.97;;;57.28;;
51459;SDS011;37534;39.772;2.718;2023-03-03T21:55:43;86.20;;;57.35;;
51459;SDS011;37534;39.772;2.718;2023-03-03T21:58:13;128.82;;;84.00;;
51459;SDS011;37534;39.772;2.718;2023-03-03T22:00:39;137.63;;;84.63;;
51459;SDS011;37534;39.772;2.718;2023-03-03T22:03:04;101.20;;;73.25;;
51459;SDS011;37534;39.772;2.718;2023-03-03T22:05:30;84.28;;;56.40;;
51459;SDS011;37534;39.772;2.718;2023-03-03T22:07:56;68.68;;;50.63;;
